BJK9260 KMCI-KDFW
Flight info
| Callsign | BJK9260 |
|---|---|
| Flight time | 1h 16m |
| Altitude | 32000 |
| Route | RACER8 DOSOA OILLR HITUG BRDJE5 |
| Aircraft | B763/H-VGDW/C |
Departure
| Time | 2026-05-06 02:16 |
|---|---|
| Airport | Kansas City International Airport (KMCI) |
Arrival
| Time | 2026-05-06 03:32 |
|---|---|
| Airport | Dallas Fort Worth International Airport (KDFW) |
| Time | Latitude | Longitude | Altitude | Speed | Heading |
|---|---|---|---|---|---|
| 2026-05-06 02:03 | 39.31017 | -94.71995 | 990 ft | 0 kts | 314° |
| 2026-05-06 02:10 | 39.31019 | -94.71999 | 990 ft | 2 kts | 303° |
| 2026-05-06 02:10 | 39.31025 | -94.72062 | 991 ft | 10 kts | 273° |
| 2026-05-06 02:11 | 39.30996 | -94.72159 | 993 ft | 14 kts | 208° |
| 2026-05-06 02:11 | 39.30877 | -94.72200 | 994 ft | 20 kts | 192° |
| 2026-05-06 02:11 | 39.30725 | -94.72245 | 997 ft | 22 kts | 192° |
| 2026-05-06 02:11 | 39.30584 | -94.72286 | 999 ft | 20 kts | 193° |
| 2026-05-06 02:12 | 39.30453 | -94.72324 | 999 ft | 18 kts | 192° |
| 2026-05-06 02:12 | 39.30332 | -94.72361 | 1000 ft | 16 kts | 193° |
| 2026-05-06 02:12 | 39.30222 | -94.72394 | 1001 ft | 15 kts | 192° |
| 2026-05-06 02:12 | 39.30121 | -94.72423 | 1001 ft | 15 kts | 192° |
| 2026-05-06 02:13 | 39.30009 | -94.72456 | 1002 ft | 17 kts | 193° |
| 2026-05-06 02:13 | 39.29896 | -94.72490 | 1003 ft | 16 kts | 193° |
| 2026-05-06 02:13 | 39.29779 | -94.72525 | 1003 ft | 18 kts | 192° |
| 2026-05-06 02:13 | 39.29635 | -94.72567 | 1005 ft | 23 kts | 193° |
| 2026-05-06 02:14 | 39.29460 | -94.72619 | 1010 ft | 26 kts | 193° |
| 2026-05-06 02:14 | 39.29304 | -94.72694 | 1014 ft | 22 kts | 232° |
| 2026-05-06 02:14 | 39.29319 | -94.72856 | 1017 ft | 18 kts | 309° |
| 2026-05-06 02:14 | 39.29429 | -94.72907 | 1016 ft | 23 kts | 11° |
| 2026-05-06 02:15 | 39.29749 | -94.72811 | 1012 ft | 72 kts | 13° |
| 2026-05-06 02:15 | 39.30392 | -94.72621 | 1005 ft | 118 kts | 12° |
| 2026-05-06 02:15 | 39.31341 | -94.72337 | 995 ft | 160 kts | 12° |
| 2026-05-06 02:15 | 39.32535 | -94.71983 | 1104 ft | 190 kts | 12° |
| 2026-05-06 02:16 | 39.33802 | -94.71609 | 1908 ft | 182 kts | 12° |
| 2026-05-06 02:16 | 39.35011 | -94.71250 | 2466 ft | 185 kts | 12° |
| 2026-05-06 02:16 | 39.36330 | -94.70894 | 2804 ft | 198 kts | 3° |
| 2026-05-06 02:16 | 39.37716 | -94.71294 | 3061 ft | 218 kts | 327° |
| 2026-05-06 02:17 | 39.38744 | -94.72804 | 3427 ft | 238 kts | 293° |
| 2026-05-06 02:17 | 39.38983 | -94.74975 | 3905 ft | 258 kts | 263° |
| 2026-05-06 02:17 | 39.38298 | -94.77146 | 4412 ft | 276 kts | 233° |
| 2026-05-06 02:17 | 39.36776 | -94.78716 | 5153 ft | 285 kts | 203° |
| 2026-05-06 02:18 | 39.34845 | -94.79203 | 5905 ft | 289 kts | 175° |
| 2026-05-06 02:18 | 39.32916 | -94.78527 | 6615 ft | 292 kts | 149° |
| 2026-05-06 02:18 | 39.31322 | -94.76949 | 7322 ft | 292 kts | 134° |
| 2026-05-06 02:18 | 39.29754 | -94.75266 | 8045 ft | 298 kts | 149° |
| 2026-05-06 02:19 | 39.27787 | -94.74434 | 8734 ft | 303 kts | 176° |
| 2026-05-06 02:19 | 39.25687 | -94.74751 | 9460 ft | 305 kts | 196° |
| 2026-05-06 02:19 | 39.23656 | -94.75473 | 10170 ft | 308 kts | 195° |
| 2026-05-06 02:19 | 39.21530 | -94.76204 | 10656 ft | 320 kts | 196° |
| 2026-05-06 02:20 | 39.17023 | -94.77786 | 11459 ft | 351 kts | 197° |
| 2026-05-06 02:20 | 39.14636 | -94.78629 | 11860 ft | 367 kts | 197° |
| 2026-05-06 02:20 | 39.12121 | -94.79517 | 12262 ft | 382 kts | 197° |
| 2026-05-06 02:21 | 39.09514 | -94.80439 | 12924 ft | 389 kts | 198° |
| 2026-05-06 02:21 | 39.06932 | -94.81349 | 13797 ft | 388 kts | 198° |
| 2026-05-06 02:21 | 39.04310 | -94.82273 | 14615 ft | 388 kts | 198° |
| 2026-05-06 02:21 | 39.01722 | -94.83188 | 15399 ft | 388 kts | 199° |
| 2026-05-06 02:22 | 38.99119 | -94.84105 | 16026 ft | 392 kts | 199° |
| 2026-05-06 02:22 | 38.96486 | -94.85033 | 16699 ft | 395 kts | 199° |
| 2026-05-06 02:22 | 38.93846 | -94.85962 | 17337 ft | 397 kts | 200° |
| 2026-05-06 02:22 | 38.91175 | -94.86900 | 17962 ft | 400 kts | 200° |
| 2026-05-06 02:23 | 38.88467 | -94.87852 | 18566 ft | 402 kts | 200° |
| 2026-05-06 02:23 | 38.85766 | -94.88800 | 19155 ft | 405 kts | 200° |
| 2026-05-06 02:23 | 38.83039 | -94.89758 | 19733 ft | 408 kts | 200° |
| 2026-05-06 02:23 | 38.80296 | -94.90718 | 20294 ft | 410 kts | 201° |
| 2026-05-06 02:24 | 38.77527 | -94.91688 | 20845 ft | 412 kts | 201° |
| 2026-05-06 02:24 | 38.74773 | -94.92651 | 21370 ft | 414 kts | 201° |
| 2026-05-06 02:24 | 38.71989 | -94.93625 | 21886 ft | 416 kts | 201° |
| 2026-05-06 02:24 | 38.70119 | -94.94279 | 22222 ft | 417 kts | 202° |
| 2026-05-06 02:25 | 38.66397 | -94.95579 | 22841 ft | 420 kts | 202° |
| 2026-05-06 02:25 | 38.63562 | -94.96568 | 23303 ft | 422 kts | 202° |
| 2026-05-06 02:25 | 38.60690 | -94.97568 | 23822 ft | 425 kts | 202° |
| 2026-05-06 02:25 | 38.57865 | -94.98553 | 24369 ft | 427 kts | 203° |
| 2026-05-06 02:26 | 38.54977 | -94.99558 | 24900 ft | 429 kts | 203° |
| 2026-05-06 02:26 | 38.52093 | -95.00561 | 25424 ft | 432 kts | 204° |
| 2026-05-06 02:26 | 38.49196 | -95.01567 | 25933 ft | 434 kts | 204° |
| 2026-05-06 02:26 | 38.46263 | -95.02583 | 26443 ft | 436 kts | 204° |
| 2026-05-06 02:27 | 38.43334 | -95.03606 | 26926 ft | 439 kts | 204° |
| 2026-05-06 02:27 | 38.40354 | -95.04637 | 27420 ft | 442 kts | 205° |
| 2026-05-06 02:27 | 38.37372 | -95.05668 | 27928 ft | 443 kts | 205° |
| 2026-05-06 02:27 | 38.34423 | -95.06684 | 28538 ft | 441 kts | 205° |
| 2026-05-06 02:28 | 38.31493 | -95.07699 | 29173 ft | 438 kts | 206° |
| 2026-05-06 02:28 | 38.28565 | -95.08707 | 29783 ft | 436 kts | 206° |
| 2026-05-06 02:28 | 38.25621 | -95.09719 | 30422 ft | 432 kts | 206° |
| 2026-05-06 02:28 | 38.22726 | -95.10711 | 31028 ft | 429 kts | 206° |
| 2026-05-06 02:29 | 38.19852 | -95.11702 | 31631 ft | 427 kts | 207° |
| 2026-05-06 02:29 | 38.17003 | -95.12688 | 32047 ft | 423 kts | 208° |
| 2026-05-06 02:29 | 38.14188 | -95.13748 | 32061 ft | 421 kts | 209° |
| 2026-05-06 02:30 | 38.08637 | -95.15847 | 32016 ft | 414 kts | 209° |
| 2026-05-06 02:30 | 38.03113 | -95.17937 | 32019 ft | 415 kts | 209° |
| 2026-05-06 02:31 | 37.97561 | -95.20032 | 31961 ft | 416 kts | 209° |
| 2026-05-06 02:31 | 37.91996 | -95.22126 | 31959 ft | 417 kts | 209° |
| 2026-05-06 02:32 | 37.86420 | -95.24219 | 31972 ft | 418 kts | 209° |
| 2026-05-06 02:32 | 37.80847 | -95.26307 | 31971 ft | 417 kts | 209° |
| 2026-05-06 02:33 | 37.75251 | -95.28401 | 31980 ft | 417 kts | 209° |
| 2026-05-06 02:33 | 37.73392 | -95.29096 | 31980 ft | 417 kts | 209° |
| 2026-05-06 02:34 | 37.64142 | -95.32549 | 31978 ft | 416 kts | 209° |
| 2026-05-06 02:34 | 37.58598 | -95.34614 | 31979 ft | 417 kts | 209° |
| 2026-05-06 02:35 | 37.53035 | -95.36683 | 31979 ft | 417 kts | 209° |
| 2026-05-06 02:35 | 37.47480 | -95.38745 | 31979 ft | 417 kts | 209° |
| 2026-05-06 02:36 | 37.41911 | -95.40810 | 31977 ft | 417 kts | 209° |
| 2026-05-06 02:36 | 37.36328 | -95.42876 | 31973 ft | 417 kts | 209° |
| 2026-05-06 02:37 | 37.30768 | -95.44932 | 31970 ft | 417 kts | 209° |
| 2026-05-06 02:37 | 37.25183 | -95.46993 | 31968 ft | 417 kts | 209° |
| 2026-05-06 02:38 | 37.19654 | -95.49030 | 31967 ft | 417 kts | 209° |
| 2026-05-06 02:38 | 37.14062 | -95.51087 | 31965 ft | 418 kts | 209° |
| 2026-05-06 02:39 | 37.08472 | -95.53140 | 31962 ft | 419 kts | 209° |
| 2026-05-06 02:39 | 37.02879 | -95.55191 | 31958 ft | 418 kts | 209° |
| 2026-05-06 02:40 | 36.97295 | -95.57236 | 31955 ft | 418 kts | 209° |
| 2026-05-06 02:40 | 36.91698 | -95.59281 | 31953 ft | 416 kts | 209° |
| 2026-05-06 02:41 | 36.86174 | -95.61298 | 31958 ft | 416 kts | 209° |
| 2026-05-06 02:41 | 36.80612 | -95.63327 | 31960 ft | 417 kts | 209° |
| 2026-05-06 02:42 | 36.75038 | -95.65360 | 31969 ft | 417 kts | 208° |
| 2026-05-06 02:42 | 36.69425 | -95.67395 | 31985 ft | 418 kts | 208° |
| 2026-05-06 02:43 | 36.63849 | -95.69418 | 31984 ft | 417 kts | 208° |
| 2026-05-06 02:43 | 36.58285 | -95.71429 | 31979 ft | 417 kts | 208° |
| 2026-05-06 02:44 | 36.52692 | -95.73456 | 31977 ft | 416 kts | 209° |
| 2026-05-06 02:44 | 36.47130 | -95.75459 | 31971 ft | 416 kts | 209° |
| 2026-05-06 02:45 | 36.41600 | -95.77453 | 31966 ft | 416 kts | 209° |
| 2026-05-06 02:45 | 36.36051 | -95.79459 | 31959 ft | 415 kts | 209° |
| 2026-05-06 02:46 | 36.30464 | -95.81474 | 31961 ft | 415 kts | 209° |
| 2026-05-06 02:46 | 36.24939 | -95.83460 | 31961 ft | 415 kts | 209° |
| 2026-05-06 02:47 | 36.19357 | -95.85462 | 31955 ft | 415 kts | 209° |
| 2026-05-06 02:47 | 36.13809 | -95.87439 | 31946 ft | 417 kts | 208° |
| 2026-05-06 02:47 | 36.10900 | -95.88108 | 31949 ft | 434 kts | 198° |
| 2026-05-06 02:48 | 36.07814 | -95.88150 | 31956 ft | 453 kts | 189° |
| 2026-05-06 02:48 | 36.04629 | -95.87534 | 31954 ft | 472 kts | 180° |
| 2026-05-06 02:48 | 36.01456 | -95.86273 | 31956 ft | 491 kts | 171° |
| 2026-05-06 02:48 | 35.98339 | -95.84357 | 31958 ft | 509 kts | 162° |
| 2026-05-06 02:49 | 35.95388 | -95.81823 | 31957 ft | 526 kts | 153° |
| 2026-05-06 02:49 | 35.92672 | -95.78714 | 31961 ft | 541 kts | 143° |
| 2026-05-06 02:49 | 35.90252 | -95.75060 | 31957 ft | 556 kts | 134° |
| 2026-05-06 02:50 | 35.85908 | -95.67203 | 31960 ft | 548 kts | 141° |
| 2026-05-06 02:50 | 35.83284 | -95.63879 | 31962 ft | 532 kts | 150° |
| 2026-05-06 02:50 | 35.80409 | -95.61152 | 31970 ft | 515 kts | 160° |
| 2026-05-06 02:50 | 35.77320 | -95.59010 | 31965 ft | 497 kts | 169° |
| 2026-05-06 02:51 | 35.74158 | -95.57535 | 31965 ft | 479 kts | 178° |
| 2026-05-06 02:51 | 35.70942 | -95.56701 | 31962 ft | 461 kts | 187° |
| 2026-05-06 02:51 | 35.67841 | -95.56513 | 31957 ft | 444 kts | 196° |
| 2026-05-06 02:51 | 35.64797 | -95.56915 | 31953 ft | 431 kts | 202° |
| 2026-05-06 02:52 | 35.61758 | -95.57286 | 31943 ft | 446 kts | 194° |
| 2026-05-06 02:52 | 35.58629 | -95.57058 | 31946 ft | 463 kts | 186° |
| 2026-05-06 02:52 | 35.55388 | -95.56335 | 31945 ft | 474 kts | 180° |
| 2026-05-06 02:53 | 35.48972 | -95.54140 | 31934 ft | 485 kts | 175° |
| 2026-05-06 02:53 | 35.42539 | -95.51437 | 31937 ft | 490 kts | 173° |
| 2026-05-06 02:54 | 35.36119 | -95.48563 | 31933 ft | 492 kts | 172° |
| 2026-05-06 02:54 | 35.29718 | -95.45610 | 31921 ft | 493 kts | 172° |
| 2026-05-06 02:55 | 35.23293 | -95.42608 | 31923 ft | 493 kts | 172° |
| 2026-05-06 02:55 | 35.16861 | -95.39607 | 31914 ft | 495 kts | 172° |
| 2026-05-06 02:56 | 35.10422 | -95.36599 | 31909 ft | 495 kts | 172° |
| 2026-05-06 02:56 | 35.03960 | -95.33583 | 31880 ft | 494 kts | 172° |
| 2026-05-06 02:57 | 34.97527 | -95.31029 | 31885 ft | 472 kts | 184° |
| 2026-05-06 02:57 | 34.91096 | -95.30098 | 31878 ft | 468 kts | 187° |
| 2026-05-06 02:58 | 34.84577 | -95.29210 | 31880 ft | 468 kts | 187° |
| 2026-05-06 02:58 | 34.78120 | -95.28321 | 31881 ft | 469 kts | 187° |
| 2026-05-06 02:59 | 34.71590 | -95.27421 | 31878 ft | 470 kts | 187° |
| 2026-05-06 02:59 | 34.65126 | -95.26528 | 31871 ft | 469 kts | 187° |
| 2026-05-06 03:00 | 34.58616 | -95.25630 | 31866 ft | 469 kts | 187° |
| 2026-05-06 03:00 | 34.52154 | -95.25154 | 31868 ft | 449 kts | 198° |
| 2026-05-06 03:00 | 34.49119 | -95.25738 | 31870 ft | 433 kts | 207° |
| 2026-05-06 03:01 | 34.46347 | -95.26884 | 31867 ft | 418 kts | 216° |
| 2026-05-06 03:01 | 34.43839 | -95.28558 | 31866 ft | 406 kts | 224° |
| 2026-05-06 03:01 | 34.41527 | -95.30473 | 31854 ft | 404 kts | 225° |
| 2026-05-06 03:02 | 34.37027 | -95.34520 | 31844 ft | 400 kts | 227° |
| 2026-05-06 03:02 | 34.32675 | -95.38668 | 31838 ft | 398 kts | 228° |
| 2026-05-06 03:03 | 34.28385 | -95.42869 | 31834 ft | 397 kts | 229° |
| 2026-05-06 03:03 | 34.24106 | -95.47109 | 31830 ft | 397 kts | 229° |
| 2026-05-06 03:04 | 34.19809 | -95.51389 | 31826 ft | 397 kts | 229° |
| 2026-05-06 03:04 | 34.15535 | -95.55647 | 31824 ft | 398 kts | 229° |
| 2026-05-06 03:05 | 34.11277 | -95.59889 | 31822 ft | 398 kts | 229° |
| 2026-05-06 03:05 | 34.07009 | -95.64143 | 31821 ft | 398 kts | 229° |
| 2026-05-06 03:06 | 34.02710 | -95.68425 | 31842 ft | 400 kts | 229° |
| 2026-05-06 03:06 | 33.98404 | -95.72713 | 31412 ft | 406 kts | 228° |
| 2026-05-06 03:06 | 33.96231 | -95.74869 | 30999 ft | 404 kts | 228° |
| 2026-05-06 03:07 | 33.94047 | -95.77030 | 30557 ft | 401 kts | 228° |
| 2026-05-06 03:07 | 33.91902 | -95.79157 | 30110 ft | 397 kts | 228° |
| 2026-05-06 03:07 | 33.89798 | -95.81244 | 29659 ft | 396 kts | 228° |
| 2026-05-06 03:07 | 33.87651 | -95.83384 | 29121 ft | 398 kts | 228° |
| 2026-05-06 03:08 | 33.85535 | -95.85480 | 28876 ft | 391 kts | 227° |
| 2026-05-06 03:08 | 33.83476 | -95.87515 | 28523 ft | 383 kts | 227° |
| 2026-05-06 03:08 | 33.81412 | -95.89562 | 27959 ft | 381 kts | 227° |
| 2026-05-06 03:08 | 33.79375 | -95.91579 | 27485 ft | 375 kts | 227° |
| 2026-05-06 03:09 | 33.77401 | -95.93529 | 27148 ft | 367 kts | 227° |
| 2026-05-06 03:09 | 33.75412 | -95.95500 | 26535 ft | 370 kts | 227° |
| 2026-05-06 03:09 | 33.73434 | -95.97450 | 26109 ft | 364 kts | 227° |
| 2026-05-06 03:09 | 33.71501 | -95.99357 | 25704 ft | 360 kts | 227° |
| 2026-05-06 03:10 | 33.69560 | -96.01273 | 25305 ft | 360 kts | 227° |
| 2026-05-06 03:10 | 33.67626 | -96.03181 | 24912 ft | 361 kts | 226° |
| 2026-05-06 03:10 | 33.65677 | -96.05103 | 24519 ft | 363 kts | 226° |
| 2026-05-06 03:10 | 33.63741 | -96.07011 | 24150 ft | 363 kts | 226° |
| 2026-05-06 03:11 | 33.61788 | -96.08933 | 23775 ft | 362 kts | 226° |
| 2026-05-06 03:11 | 33.59836 | -96.10853 | 23394 ft | 360 kts | 226° |
| 2026-05-06 03:11 | 33.57900 | -96.12756 | 23010 ft | 357 kts | 226° |
| 2026-05-06 03:11 | 33.55975 | -96.14648 | 22629 ft | 356 kts | 226° |
| 2026-05-06 03:12 | 33.54083 | -96.16506 | 22250 ft | 354 kts | 226° |
| 2026-05-06 03:12 | 33.52169 | -96.18386 | 21860 ft | 353 kts | 225° |
| 2026-05-06 03:12 | 33.50270 | -96.20248 | 21469 ft | 352 kts | 225° |
| 2026-05-06 03:12 | 33.48381 | -96.22102 | 21085 ft | 349 kts | 225° |
| 2026-05-06 03:13 | 33.46521 | -96.23923 | 20693 ft | 346 kts | 225° |
| 2026-05-06 03:13 | 33.44682 | -96.25761 | 20294 ft | 340 kts | 229° |
| 2026-05-06 03:13 | 33.43116 | -96.27837 | 19955 ft | 333 kts | 234° |
| 2026-05-06 03:13 | 33.41608 | -96.29925 | 19630 ft | 332 kts | 233° |
| 2026-05-06 03:14 | 33.40105 | -96.32007 | 19296 ft | 331 kts | 233° |
| 2026-05-06 03:14 | 33.38592 | -96.34092 | 18948 ft | 328 kts | 233° |
| 2026-05-06 03:14 | 33.37106 | -96.36140 | 18609 ft | 325 kts | 233° |
| 2026-05-06 03:14 | 33.35638 | -96.38163 | 18301 ft | 323 kts | 233° |
| 2026-05-06 03:15 | 33.34159 | -96.40198 | 17972 ft | 322 kts | 233° |
| 2026-05-06 03:15 | 33.32702 | -96.42200 | 17735 ft | 311 kts | 233° |
| 2026-05-06 03:15 | 33.31309 | -96.44149 | 17461 ft | 309 kts | 233° |
| 2026-05-06 03:15 | 33.29921 | -96.46098 | 17110 ft | 305 kts | 233° |
| 2026-05-06 03:16 | 33.28556 | -96.48012 | 16879 ft | 300 kts | 233° |
| 2026-05-06 03:16 | 33.27195 | -96.49907 | 16501 ft | 304 kts | 232° |
| 2026-05-06 03:16 | 33.25785 | -96.51762 | 16188 ft | 299 kts | 231° |
| 2026-05-06 03:16 | 33.24399 | -96.53596 | 15918 ft | 297 kts | 231° |
| 2026-05-06 03:17 | 33.23020 | -96.55414 | 15763 ft | 289 kts | 232° |
| 2026-05-06 03:17 | 33.21714 | -96.57134 | 15707 ft | 275 kts | 232° |
| 2026-05-06 03:17 | 33.20461 | -96.58781 | 15643 ft | 261 kts | 233° |
| 2026-05-06 03:17 | 33.19287 | -96.60381 | 15499 ft | 252 kts | 233° |
| 2026-05-06 03:18 | 33.18133 | -96.61959 | 15137 ft | 251 kts | 233° |
| 2026-05-06 03:18 | 33.16983 | -96.63529 | 14804 ft | 249 kts | 233° |
| 2026-05-06 03:18 | 33.15860 | -96.65061 | 14468 ft | 248 kts | 232° |
| 2026-05-06 03:18 | 33.14714 | -96.66621 | 14117 ft | 248 kts | 232° |
| 2026-05-06 03:19 | 33.13585 | -96.68160 | 13767 ft | 247 kts | 232° |
| 2026-05-06 03:19 | 33.12452 | -96.69700 | 13422 ft | 247 kts | 232° |
| 2026-05-06 03:19 | 33.11317 | -96.71242 | 13074 ft | 246 kts | 232° |
| 2026-05-06 03:19 | 33.10199 | -96.72765 | 12728 ft | 246 kts | 232° |
| 2026-05-06 03:20 | 33.07937 | -96.75840 | 12034 ft | 245 kts | 231° |
| 2026-05-06 03:20 | 33.06808 | -96.77370 | 11691 ft | 245 kts | 231° |
| 2026-05-06 03:20 | 33.05696 | -96.78881 | 11348 ft | 244 kts | 231° |
| 2026-05-06 03:21 | 33.04568 | -96.80411 | 10997 ft | 244 kts | 231° |
| 2026-05-06 03:21 | 33.03447 | -96.81932 | 10654 ft | 244 kts | 230° |
| 2026-05-06 03:21 | 33.02330 | -96.83444 | 10304 ft | 244 kts | 230° |
| 2026-05-06 03:21 | 33.01208 | -96.84961 | 9948 ft | 244 kts | 230° |
| 2026-05-06 03:22 | 33.00083 | -96.86479 | 9570 ft | 245 kts | 230° |
| 2026-05-06 03:22 | 32.98969 | -96.87990 | 9192 ft | 246 kts | 230° |
| 2026-05-06 03:22 | 32.97760 | -96.89475 | 8819 ft | 248 kts | 218° |
| 2026-05-06 03:22 | 32.96140 | -96.90241 | 8400 ft | 260 kts | 192° |
| 2026-05-06 03:23 | 32.94333 | -96.90414 | 8077 ft | 261 kts | 189° |
| 2026-05-06 03:23 | 32.92517 | -96.90585 | 7717 ft | 262 kts | 189° |
| 2026-05-06 03:23 | 32.90704 | -96.90737 | 7384 ft | 262 kts | 189° |
| 2026-05-06 03:23 | 32.88870 | -96.90888 | 7074 ft | 262 kts | 188° |
| 2026-05-06 03:24 | 32.87049 | -96.91032 | 6778 ft | 260 kts | 188° |
| 2026-05-06 03:24 | 32.85232 | -96.91170 | 6465 ft | 260 kts | 188° |
| 2026-05-06 03:24 | 32.83444 | -96.91305 | 6160 ft | 259 kts | 187° |
| 2026-05-06 03:24 | 32.81632 | -96.91442 | 5859 ft | 258 kts | 188° |
| 2026-05-06 03:25 | 32.79860 | -96.91556 | 5584 ft | 256 kts | 186° |
| 2026-05-06 03:25 | 32.78084 | -96.91577 | 5310 ft | 256 kts | 184° |
| 2026-05-06 03:25 | 32.76281 | -96.91570 | 5020 ft | 255 kts | 184° |
| 2026-05-06 03:25 | 32.74509 | -96.91572 | 4749 ft | 253 kts | 183° |
| 2026-05-06 03:26 | 32.72754 | -96.91569 | 4420 ft | 254 kts | 183° |
| 2026-05-06 03:26 | 32.70991 | -96.91340 | 4128 ft | 256 kts | 174° |
| 2026-05-06 03:26 | 32.69247 | -96.91423 | 3804 ft | 249 kts | 202° |
| 2026-05-06 03:26 | 32.67835 | -96.92503 | 3495 ft | 244 kts | 231° |
| 2026-05-06 03:27 | 32.67099 | -96.94309 | 3162 ft | 245 kts | 262° |
| 2026-05-06 03:27 | 32.67077 | -96.96314 | 3025 ft | 244 kts | 272° |
| 2026-05-06 03:27 | 32.67187 | -96.98308 | 3007 ft | 244 kts | 273° |
| 2026-05-06 03:27 | 32.67596 | -97.00198 | 2993 ft | 233 kts | 301° |
| 2026-05-06 03:28 | 32.68733 | -97.01495 | 3030 ft | 226 kts | 329° |
| 2026-05-06 03:28 | 32.70124 | -97.02329 | 3013 ft | 225 kts | 333° |
| 2026-05-06 03:28 | 32.71577 | -97.02988 | 3019 ft | 224 kts | 353° |
| 2026-05-06 03:28 | 32.73135 | -97.03031 | 3087 ft | 219 kts | 359° |
| 2026-05-06 03:29 | 32.74589 | -97.03044 | 3040 ft | 196 kts | 358° |
| 2026-05-06 03:29 | 32.75863 | -97.03051 | 2849 ft | 175 kts | 358° |
| 2026-05-06 03:29 | 32.77006 | -97.03052 | 2658 ft | 156 kts | 358° |
| 2026-05-06 03:29 | 32.78082 | -97.03052 | 2440 ft | 153 kts | 358° |
| 2026-05-06 03:30 | 32.79147 | -97.03048 | 2261 ft | 155 kts | 358° |
| 2026-05-06 03:30 | 32.80245 | -97.03046 | 2064 ft | 156 kts | 358° |
| 2026-05-06 03:30 | 32.81323 | -97.03042 | 1857 ft | 154 kts | 358° |
| 2026-05-06 03:30 | 32.82377 | -97.03037 | 1657 ft | 151 kts | 359° |
| 2026-05-06 03:31 | 32.83419 | -97.03030 | 1457 ft | 147 kts | 359° |
| 2026-05-06 03:31 | 32.84430 | -97.03026 | 1263 ft | 144 kts | 359° |
| 2026-05-06 03:31 | 32.85428 | -97.03022 | 1077 ft | 141 kts | 359° |
| 2026-05-06 03:31 | 32.86379 | -97.03016 | 895 ft | 140 kts | 359° |
| 2026-05-06 03:32 | 32.87343 | -97.03011 | 719 ft | 141 kts | 359° |
| 2026-05-06 03:32 | 32.88323 | -97.03007 | 572 ft | 138 kts | 359° |
| 2026-05-06 03:32 | 32.89085 | -97.03005 | 572 ft | 76 kts | 0° |
| 2026-05-06 03:32 | 32.89366 | -97.03004 | 572 ft | 18 kts | 360° |
| 2026-05-06 03:33 | 32.89410 | -97.03054 | 574 ft | 7 kts | 261° |
| 2026-05-06 03:33 | 32.89404 | -97.03110 | 575 ft | 8 kts | 263° |
| 2026-05-06 03:33 | 32.89399 | -97.03200 | 576 ft | 12 kts | 270° |
| 2026-05-06 03:33 | 32.89415 | -97.03297 | 577 ft | 11 kts | 314° |
| 2026-05-06 03:34 | 32.89491 | -97.03316 | 578 ft | 11 kts | 359° |
| 2026-05-06 03:34 | 32.89565 | -97.03316 | 579 ft | 10 kts | 359° |
| 2026-05-06 03:34 | 32.89638 | -97.03318 | 581 ft | 10 kts | 0° |
| 2026-05-06 03:34 | 32.89728 | -97.03316 | 581 ft | 15 kts | 0° |
| 2026-05-06 03:35 | 32.89857 | -97.03316 | 581 ft | 20 kts | 360° |
| 2026-05-06 03:35 | 32.90012 | -97.03320 | 584 ft | 24 kts | 359° |
| 2026-05-06 03:35 | 32.90179 | -97.03324 | 585 ft | 23 kts | 0° |
| 2026-05-06 03:35 | 32.90329 | -97.03317 | 587 ft | 20 kts | 2° |
| 2026-05-06 03:36 | 32.90465 | -97.03312 | 587 ft | 18 kts | 1° |
| 2026-05-06 03:36 | 32.90586 | -97.03310 | 588 ft | 16 kts | 360° |
| 2026-05-06 03:36 | 32.90708 | -97.03312 | 589 ft | 19 kts | 359° |
| 2026-05-06 03:36 | 32.90861 | -97.03312 | 587 ft | 24 kts | 1° |
| 2026-05-06 03:37 | 32.91041 | -97.03336 | 587 ft | 27 kts | 350° |
| 2026-05-06 03:37 | 32.91125 | -97.03421 | 585 ft | 10 kts | 264° |
| 2026-05-06 03:37 | 32.91106 | -97.03480 | 586 ft | 6 kts | 247° |
| 2026-05-06 03:37 | 32.91101 | -97.03505 | 586 ft | 0 kts | 268° |